sensor_id;sensor_type;location;lat;lon;timestamp;P1;P2;P0
81998;PMS5003;71598;46.516;-122.928;2023-07-30T00:01:32;60;60;
81998;PMS5003;71598;46.516;-122.928;2023-07-30T00:03:59;56;56;
81998;PMS5003;71598;46.516;-122.928;2023-07-30T00:06:24;64;62;
81998;PMS5003;71598;46.516;-122.928;2023-07-30T00:08:49;58;57;
81998;PMS5003;71598;46.516;-122.928;2023-07-30T00:11:14;59;57;
81998;PMS5003;71598;46.516;-122.928;2023-07-30T00:13:40;55;54;
81998;PMS5003;71598;46.516;-122.928;2023-07-30T00:16:06;61;60;
81998;PMS5003;71598;46.516;-122.928;2023-07-30T00:18:31;57;56;
81998;PMS5003;71598;46.516;-122.928;2023-07-30T00:20:57;65;61;
81998;PMS5003;71598;46.516;-122.928;2023-07-30T00:23:23;62;61;
81998;PMS5003;71598;46.516;-122.928;2023-07-30T00:25:48;64;62;
81998;PMS5003;71598;46.516;-122.928;2023-07-30T00:28:14;66;65;
81998;PMS5003;71598;46.516;-122.928;2023-07-30T00:30:39;58;57;
81998;PMS5003;71598;46.516;-122.928;2023-07-30T00:33:04;68;66;
81998;PMS5003;71598;46.516;-122.928;2023-07-30T00:35:29;71;69;
81998;PMS5003;71598;46.516;-122.928;2023-07-30T00:37:55;70;67;
81998;PMS5003;71598;46.516;-122.928;2023-07-30T00:40:20;67;67;
81998;PMS5003;71598;46.516;-122.928;2023-07-30T00:42:46;60;60;
81998;PMS5003;71598;46.516;-122.928;2023-07-30T00:45:12;63;62;
81998;PMS5003;71598;46.516;-122.928;2023-07-30T00:47:37;65;64;
81998;PMS5003;71598;46.516;-122.928;2023-07-30T00:50:03;66;63;
81998;PMS5003;71598;46.516;-122.928;2023-07-30T00:52:28;56;55;
81998;PMS5003;71598;46.516;-122.928;2023-07-30T00:54:54;57;57;
81998;PMS5003;71598;46.516;-122.928;2023-07-30T00:57:19;61;60;
81998;PMS5003;71598;46.516;-122.928;2023-07-30T00:59:44;66;64;
81998;PMS5003;71598;46.516;-122.928;2023-07-30T01:02:10;65;63;
81998;PMS5003;71598;46.516;-122.928;2023-07-30T01:04:36;58;58;
81998;PMS5003;71598;46.516;-122.928;2023-07-30T01:07:01;68;67;
81998;PMS5003;71598;46.516;-122.928;2023-07-30T01:09:27;67;63;
81998;PMS5003;71598;46.516;-122.928;2023-07-30T01:11:52;67;64;
81998;PMS5003;71598;46.516;-122.928;2023-07-30T01:14:17;64;64;
81998;PMS5003;71598;46.516;-122.928;2023-07-30T01:16:43;75;73;
81998;PMS5003;71598;46.516;-122.928;2023-07-30T01:19:08;67;66;
81998;PMS5003;71598;46.516;-122.928;2023-07-30T01:21:33;64;63;
81998;PMS5003;71598;46.516;-122.928;2023-07-30T01:23:59;67;66;
81998;PMS5003;71598;46.516;-122.928;2023-07-30T01:26:26;62;61;
81998;PMS5003;71598;46.516;-122.928;2023-07-30T01:28:51;64;64;
81998;PMS5003;71598;46.516;-122.928;2023-07-30T01:31:16;65;64;
81998;PMS5003;71598;46.516;-122.928;2023-07-30T01:33:41;69;65;
81998;PMS5003;71598;46.516;-122.928;2023-07-30T01:36:06;69;68;
81998;PMS5003;71598;46.516;-122.928;2023-07-30T01:38:31;68;65;
81998;PMS5003;71598;46.516;-122.928;2023-07-30T01:40:57;63;63;
81998;PMS5003;71598;46.516;-122.928;2023-07-30T01:43:23;68;67;
81998;PMS5003;71598;46.516;-122.928;2023-07-30T01:45:48;70;69;
81998;PMS5003;71598;46.516;-122.928;2023-07-30T01:48:14;71;67;
81998;PMS5003;71598;46.516;-122.928;2023-07-30T01:50:40;67;66;
81998;PMS5003;71598;46.516;-122.928;2023-07-30T01:53:05;70;69;
81998;PMS5003;71598;46.516;-122.928;2023-07-30T01:55:31;68;67;
81998;PMS5003;71598;46.516;-122.928;2023-07-30T01:57:56;69;68;
81998;PMS5003;71598;46.516;-122.928;2023-07-30T02:00:22;70;66;
81998;PMS5003;71598;46.516;-122.928;2023-07-30T02:02:48;70;67;
81998;PMS5003;71598;46.516;-122.928;2023-07-30T02:05:14;76;73;
81998;PMS5003;71598;46.516;-122.928;2023-07-30T02:07:39;69;67;
81998;PMS5003;71598;46.516;-122.928;2023-07-30T02:10:05;75;73;
81998;PMS5003;71598;46.516;-122.928;2023-07-30T02:12:29;64;63;
81998;PMS5003;71598;46.516;-122.928;2023-07-30T02:14:55;68;65;
81998;PMS5003;71598;46.516;-122.928;2023-07-30T02:17:20;74;69;
81998;PMS5003;71598;46.516;-122.928;2023-07-30T02:19:46;67;65;
81998;PMS5003;71598;46.516;-122.928;2023-07-30T02:22:11;71;70;
81998;PMS5003;71598;46.516;-122.928;2023-07-30T02:24:36;66;65;
81998;PMS5003;71598;46.516;-122.928;2023-07-30T02:27:02;72;72;
81998;PMS5003;71598;46.516;-122.928;2023-07-30T02:29:27;72;71;
81998;PMS5003;71598;46.516;-122.928;2023-07-30T02:31:52;75;72;
81998;PMS5003;71598;46.516;-122.928;2023-07-30T02:34:17;78;77;
81998;PMS5003;71598;46.516;-122.928;2023-07-30T02:36:43;69;69;
81998;PMS5003;71598;46.516;-122.928;2023-07-30T02:39:09;74;71;
81998;PMS5003;71598;46.516;-122.928;2023-07-30T02:41:34;71;69;
81998;PMS5003;71598;46.516;-122.928;2023-07-30T02:44:00;67;67;
81998;PMS5003;71598;46.516;-122.928;2023-07-30T02:46:25;69;67;
81998;PMS5003;71598;46.516;-122.928;2023-07-30T02:48:51;68;65;
81998;PMS5003;71598;46.516;-122.928;2023-07-30T02:51:16;64;63;
81998;PMS5003;71598;46.516;-122.928;2023-07-30T02:53:43;70;69;
81998;PMS5003;71598;46.516;-122.928;2023-07-30T02:56:07;66;63;
81998;PMS5003;71598;46.516;-122.928;2023-07-30T02:58:32;68;66;
81998;PMS5003;71598;46.516;-122.928;2023-07-30T03:01:05;71;70;
81998;PMS5003;71598;46.516;-122.928;2023-07-30T03:03:23;70;67;
81998;PMS5003;71598;46.516;-122.928;2023-07-30T03:05:49;69;68;
81998;PMS5003;71598;46.516;-122.928;2023-07-30T03:08:14;74;71;
81998;PMS5003;71598;46.516;-122.928;2023-07-30T03:10:40;74;71;
81998;PMS5003;71598;46.516;-122.928;2023-07-30T03:13:05;66;64;
81998;PMS5003;71598;46.516;-122.928;2023-07-30T03:15:31;64;61;
81998;PMS5003;71598;46.516;-122.928;2023-07-30T03:17:57;69;67;
81998;PMS5003;71598;46.516;-122.928;2023-07-30T03:20:22;67;66;
81998;PMS5003;71598;46.516;-122.928;2023-07-30T03:22:47;63;61;
81998;PMS5003;71598;46.516;-122.928;2023-07-30T03:25:13;70;70;
81998;PMS5003;71598;46.516;-122.928;2023-07-30T03:27:38;71;68;
81998;PMS5003;71598;46.516;-122.928;2023-07-30T03:30:06;67;64;
81998;PMS5003;71598;46.516;-122.928;2023-07-30T03:32:29;72;69;
81998;PMS5003;71598;46.516;-122.928;2023-07-30T03:34:54;68;67;
81998;PMS5003;71598;46.516;-122.928;2023-07-30T03:37:20;69;68;
81998;PMS5003;71598;46.516;-122.928;2023-07-30T03:39:46;67;64;
81998;PMS5003;71598;46.516;-122.928;2023-07-30T03:42:11;63;62;
81998;PMS5003;71598;46.516;-122.928;2023-07-30T03:44:37;64;63;
81998;PMS5003;71598;46.516;-122.928;2023-07-30T03:47:02;73;69;
81998;PMS5003;71598;46.516;-122.928;2023-07-30T03:49:28;65;64;
81998;PMS5003;71598;46.516;-122.928;2023-07-30T03:51:54;65;64;
81998;PMS5003;71598;46.516;-122.928;2023-07-30T03:54:19;62;61;
81998;PMS5003;71598;46.516;-122.928;2023-07-30T03:56:45;69;68;
81998;PMS5003;71598;46.516;-122.928;2023-07-30T03:59:13;63;63;
81998;PMS5003;71598;46.516;-122.928;2023-07-30T04:01:36;66;66;
81998;PMS5003;71598;46.516;-122.928;2023-07-30T04:04:01;72;70;
81998;PMS5003;71598;46.516;-122.928;2023-07-30T04:06:27;71;69;
81998;PMS5003;71598;46.516;-122.928;2023-07-30T04:08:52;70;67;
81998;PMS5003;71598;46.516;-122.928;2023-07-30T04:11:17;65;64;
81998;PMS5003;71598;46.516;-122.928;2023-07-30T04:13:43;67;66;
81998;PMS5003;71598;46.516;-122.928;2023-07-30T04:16:08;69;67;
81998;PMS5003;71598;46.516;-122.928;2023-07-30T04:18:33;71;71;
81998;PMS5003;71598;46.516;-122.928;2023-07-30T04:20:58;67;65;
81998;PMS5003;71598;46.516;-122.928;2023-07-30T04:23:24;67;66;
81998;PMS5003;71598;46.516;-122.928;2023-07-30T04:25:49;63;62;
81998;PMS5003;71598;46.516;-122.928;2023-07-30T04:28:15;65;64;
81998;PMS5003;71598;46.516;-122.928;2023-07-30T04:30:41;67;66;
81998;PMS5003;71598;46.516;-122.928;2023-07-30T04:33:05;67;66;
81998;PMS5003;71598;46.516;-122.928;2023-07-30T04:35:31;70;69;
81998;PMS5003;71598;46.516;-122.928;2023-07-30T04:37:56;67;66;
81998;PMS5003;71598;46.516;-122.928;2023-07-30T04:40:21;67;65;
81998;PMS5003;71598;46.516;-122.928;2023-07-30T04:42:47;67;67;
81998;PMS5003;71598;46.516;-122.928;2023-07-30T04:45:12;72;71;
81998;PMS5003;71598;46.516;-122.928;2023-07-30T04:47:38;73;69;
81998;PMS5003;71598;46.516;-122.928;2023-07-30T04:50:04;68;64;
81998;PMS5003;71598;46.516;-122.928;2023-07-30T04:52:31;74;74;
81998;PMS5003;71598;46.516;-122.928;2023-07-30T04:54:55;72;71;
81998;PMS5003;71598;46.516;-122.928;2023-07-30T04:57:21;69;68;
81998;PMS5003;71598;46.516;-122.928;2023-07-30T04:59:46;67;65;
81998;PMS5003;71598;46.516;-122.928;2023-07-30T05:02:12;70;70;
81998;PMS5003;71598;46.516;-122.928;2023-07-30T05:04:38;75;74;
81998;PMS5003;71598;46.516;-122.928;2023-07-30T05:07:04;64;62;
81998;PMS5003;71598;46.516;-122.928;2023-07-30T05:09:29;66;66;
81998;PMS5003;71598;46.516;-122.928;2023-07-30T05:11:54;85;84;
81998;PMS5003;71598;46.516;-122.928;2023-07-30T05:14:19;87;85;
81998;PMS5003;71598;46.516;-122.928;2023-07-30T05:16:45;91;90;
81998;PMS5003;71598;46.516;-122.928;2023-07-30T05:19:10;84;83;
81998;PMS5003;71598;46.516;-122.928;2023-07-30T05:21:35;79;79;
81998;PMS5003;71598;46.516;-122.928;2023-07-30T05:24:01;83;82;
81998;PMS5003;71598;46.516;-122.928;2023-07-30T05:26:26;80;77;
81998;PMS5003;71598;46.516;-122.928;2023-07-30T05:28:51;80;77;
81998;PMS5003;71598;46.516;-122.928;2023-07-30T05:31:19;81;80;
81998;PMS5003;71598;46.516;-122.928;2023-07-30T05:33:42;84;82;
81998;PMS5003;71598;46.516;-122.928;2023-07-30T05:36:07;80;80;
81998;PMS5003;71598;46.516;-122.928;2023-07-30T05:38:33;84;83;
81998;PMS5003;71598;46.516;-122.928;2023-07-30T05:40:58;77;73;
81998;PMS5003;71598;46.516;-122.928;2023-07-30T05:43:24;86;84;
81998;PMS5003;71598;46.516;-122.928;2023-07-30T05:45:49;81;78;
81998;PMS5003;71598;46.516;-122.928;2023-07-30T05:48:15;84;82;
81998;PMS5003;71598;46.516;-122.928;2023-07-30T05:50:40;81;80;
81998;PMS5003;71598;46.516;-122.928;2023-07-30T05:53:06;82;81;
81998;PMS5003;71598;46.516;-122.928;2023-07-30T05:55:31;88;84;
81998;PMS5003;71598;46.516;-122.928;2023-07-30T05:57:57;81;81;
81998;PMS5003;71598;46.516;-122.928;2023-07-30T06:00:22;82;81;
81998;PMS5003;71598;46.516;-122.928;2023-07-30T06:02:47;83;82;
81998;PMS5003;71598;46.516;-122.928;2023-07-30T06:05:13;83;82;
81998;PMS5003;71598;46.516;-122.928;2023-07-30T06:07:38;83;83;
81998;PMS5003;71598;46.516;-122.928;2023-07-30T06:10:03;81;79;
81998;PMS5003;71598;46.516;-122.928;2023-07-30T06:12:29;81;80;
81998;PMS5003;71598;46.516;-122.928;2023-07-30T06:14:54;82;81;
81998;PMS5003;71598;46.516;-122.928;2023-07-30T06:17:20;79;79;
81998;PMS5003;71598;46.516;-122.928;2023-07-30T06:19:46;84;82;
81998;PMS5003;71598;46.516;-122.928;2023-07-30T06:22:11;88;85;
81998;PMS5003;71598;46.516;-122.928;2023-07-30T06:24:37;77;77;
81998;PMS5003;71598;46.516;-122.928;2023-07-30T06:27:02;83;83;
81998;PMS5003;71598;46.516;-122.928;2023-07-30T06:29:27;81;81;
81998;PMS5003;71598;46.516;-122.928;2023-07-30T06:31:54;80;78;
81998;PMS5003;71598;46.516;-122.928;2023-07-30T06:34:18;76;75;
81998;PMS5003;71598;46.516;-122.928;2023-07-30T06:36:43;76;74;
81998;PMS5003;71598;46.516;-122.928;2023-07-30T06:39:09;75;72;
81998;PMS5003;71598;46.516;-122.928;2023-07-30T06:41:34;70;68;
81998;PMS5003;71598;46.516;-122.928;2023-07-30T06:43:59;72;72;
81998;PMS5003;71598;46.516;-122.928;2023-07-30T06:46:24;74;72;
81998;PMS5003;71598;46.516;-122.928;2023-07-30T06:48:50;78;76;
81998;PMS5003;71598;46.516;-122.928;2023-07-30T06:51:17;73;73;
81998;PMS5003;71598;46.516;-122.928;2023-07-30T06:53:40;73;71;
81998;PMS5003;71598;46.516;-122.928;2023-07-30T06:56:06;73;71;
81998;PMS5003;71598;46.516;-122.928;2023-07-30T06:58:32;81;78;
81998;PMS5003;71598;46.516;-122.928;2023-07-30T07:00:58;70;68;
81998;PMS5003;71598;46.516;-122.928;2023-07-30T07:03:24;73;71;
81998;PMS5003;71598;46.516;-122.928;2023-07-30T07:05:52;75;73;
81998;PMS5003;71598;46.516;-122.928;2023-07-30T07:08:15;71;70;
81998;PMS5003;71598;46.516;-122.928;2023-07-30T07:10:39;78;75;
81998;PMS5003;71598;46.516;-122.928;2023-07-30T07:13:04;69;68;
81998;PMS5003;71598;46.516;-122.928;2023-07-30T07:15:30;73;69;
81998;PMS5003;71598;46.516;-122.928;2023-07-30T07:17:55;68;67;
81998;PMS5003;71598;46.516;-122.928;2023-07-30T07:20:21;68;68;
81998;PMS5003;71598;46.516;-122.928;2023-07-30T07:22:46;69;68;
81998;PMS5003;71598;46.516;-122.928;2023-07-30T07:25:12;73;73;
81998;PMS5003;71598;46.516;-122.928;2023-07-30T07:27:37;73;73;
81998;PMS5003;71598;46.516;-122.928;2023-07-30T07:30:03;72;71;
81998;PMS5003;71598;46.516;-122.928;2023-07-30T07:32:29;71;71;
81998;PMS5003;71598;46.516;-122.928;2023-07-30T07:34:54;71;70;
81998;PMS5003;71598;46.516;-122.928;2023-07-30T07:37:20;71;65;
81998;PMS5003;71598;46.516;-122.928;2023-07-30T07:39:46;64;63;
81998;PMS5003;71598;46.516;-122.928;2023-07-30T07:42:11;70;69;
81998;PMS5003;71598;46.516;-122.928;2023-07-30T07:44:37;66;65;
81998;PMS5003;71598;46.516;-122.928;2023-07-30T07:47:03;72;70;
81998;PMS5003;71598;46.516;-122.928;2023-07-30T07:49:28;68;67;
81998;PMS5003;71598;46.516;-122.928;2023-07-30T07:51:53;65;64;
81998;PMS5003;71598;46.516;-122.928;2023-07-30T07:54:19;64;64;
81998;PMS5003;71598;46.516;-122.928;2023-07-30T07:56:44;65;63;
81998;PMS5003;71598;46.516;-122.928;2023-07-30T07:59:09;67;66;
81998;PMS5003;71598;46.516;-122.928;2023-07-30T08:01:35;65;64;
81998;PMS5003;71598;46.516;-122.928;2023-07-30T08:04:01;64;64;
81998;PMS5003;71598;46.516;-122.928;2023-07-30T08:06:25;62;62;
81998;PMS5003;71598;46.516;-122.928;2023-07-30T08:08:52;63;61;
81998;PMS5003;71598;46.516;-122.928;2023-07-30T08:11:16;63;63;
81998;PMS5003;71598;46.516;-122.928;2023-07-30T08:13:42;65;64;
81998;PMS5003;71598;46.516;-122.928;2023-07-30T08:16:07;62;60;
81998;PMS5003;71598;46.516;-122.928;2023-07-30T08:18:33;66;66;
81998;PMS5003;71598;46.516;-122.928;2023-07-30T08:20:59;63;60;
81998;PMS5003;71598;46.516;-122.928;2023-07-30T08:23:24;59;59;
81998;PMS5003;71598;46.516;-122.928;2023-07-30T08:25:49;63;61;
81998;PMS5003;71598;46.516;-122.928;2023-07-30T08:28:15;59;58;
81998;PMS5003;71598;46.516;-122.928;2023-07-30T08:30:40;59;58;
81998;PMS5003;71598;46.516;-122.928;2023-07-30T08:33:06;59;58;
81998;PMS5003;71598;46.516;-122.928;2023-07-30T08:35:30;63;62;
81998;PMS5003;71598;46.516;-122.928;2023-07-30T08:37:56;57;55;
81998;PMS5003;71598;46.516;-122.928;2023-07-30T08:40:21;56;53;
81998;PMS5003;71598;46.516;-122.928;2023-07-30T08:42:46;59;59;
81998;PMS5003;71598;46.516;-122.928;2023-07-30T08:45:12;54;53;
81998;PMS5003;71598;46.516;-122.928;2023-07-30T08:47:39;63;60;
81998;PMS5003;71598;46.516;-122.928;2023-07-30T08:50:03;49;49;
81998;PMS5003;71598;46.516;-122.928;2023-07-30T08:52:29;58;56;
81998;PMS5003;71598;46.516;-122.928;2023-07-30T08:54:54;55;53;
81998;PMS5003;71598;46.516;-122.928;2023-07-30T08:57:19;56;56;
81998;PMS5003;71598;46.516;-122.928;2023-07-30T08:59:48;53;53;
81998;PMS5003;71598;46.516;-122.928;2023-07-30T09:02:12;54;53;
81998;PMS5003;71598;46.516;-122.928;2023-07-30T09:04:36;58;55;
81998;PMS5003;71598;46.516;-122.928;2023-07-30T09:07:01;51;50;
81998;PMS5003;71598;46.516;-122.928;2023-07-30T09:09:27;55;55;
81998;PMS5003;71598;46.516;-122.928;2023-07-30T09:11:52;55;53;
81998;PMS5003;71598;46.516;-122.928;2023-07-30T09:14:18;48;48;
81998;PMS5003;71598;46.516;-122.928;2023-07-30T09:16:43;52;50;
81998;PMS5003;71598;46.516;-122.928;2023-07-30T09:19:08;54;54;
81998;PMS5003;71598;46.516;-122.928;2023-07-30T09:21:33;54;53;
81998;PMS5003;71598;46.516;-122.928;2023-07-30T09:24:00;47;47;
81998;PMS5003;71598;46.516;-122.928;2023-07-30T09:26:24;49;48;
81998;PMS5003;71598;46.516;-122.928;2023-07-30T09:28:50;52;52;
81998;PMS5003;71598;46.516;-122.928;2023-07-30T09:31:15;53;52;
81998;PMS5003;71598;46.516;-122.928;2023-07-30T09:33:42;55;50;
81998;PMS5003;71598;46.516;-122.928;2023-07-30T09:36:07;54;53;
81998;PMS5003;71598;46.516;-122.928;2023-07-30T09:38:31;47;47;
81998;PMS5003;71598;46.516;-122.928;2023-07-30T09:41:00;52;51;
81998;PMS5003;71598;46.516;-122.928;2023-07-30T09:43:22;50;50;
81998;PMS5003;71598;46.516;-122.928;2023-07-30T09:45:48;52;48;
81998;PMS5003;71598;46.516;-122.928;2023-07-30T09:48:13;48;48;
81998;PMS5003;71598;46.516;-122.928;2023-07-30T09:50:39;45;45;
81998;PMS5003;71598;46.516;-122.928;2023-07-30T09:53:04;44;43;
81998;PMS5003;71598;46.516;-122.928;2023-07-30T09:55:30;48;48;
81998;PMS5003;71598;46.516;-122.928;2023-07-30T09:57:55;51;47;
81998;PMS5003;71598;46.516;-122.928;2023-07-30T10:00:20;44;43;
81998;PMS5003;71598;46.516;-122.928;2023-07-30T10:02:46;42;41;
81998;PMS5003;71598;46.516;-122.928;2023-07-30T10:05:12;43;42;
81998;PMS5003;71598;46.516;-122.928;2023-07-30T10:07:36;47;45;
81998;PMS5003;71598;46.516;-122.928;2023-07-30T10:10:02;44;43;
81998;PMS5003;71598;46.516;-122.928;2023-07-30T10:12:28;46;45;
81998;PMS5003;71598;46.516;-122.928;2023-07-30T10:14:52;49;47;
81998;PMS5003;71598;46.516;-122.928;2023-07-30T10:17:18;46;44;
81998;PMS5003;71598;46.516;-122.928;2023-07-30T10:19:46;44;41;
81998;PMS5003;71598;46.516;-122.928;2023-07-30T10:22:20;46;44;
81998;PMS5003;71598;46.516;-122.928;2023-07-30T10:24:35;49;47;
81998;PMS5003;71598;46.516;-122.928;2023-07-30T10:27:05;44;44;
81998;PMS5003;71598;46.516;-122.928;2023-07-30T10:29:26;46;44;
81998;PMS5003;71598;46.516;-122.928;2023-07-30T10:31:52;47;46;
81998;PMS5003;71598;46.516;-122.928;2023-07-30T10:34:17;43;43;
81998;PMS5003;71598;46.516;-122.928;2023-07-30T10:36:43;47;46;
81998;PMS5003;71598;46.516;-122.928;2023-07-30T10:39:15;52;51;
81998;PMS5003;71598;46.516;-122.928;2023-07-30T10:41:32;49;47;
81998;PMS5003;71598;46.516;-122.928;2023-07-30T10:43:59;41;40;
81998;PMS5003;71598;46.516;-122.928;2023-07-30T10:46:26;47;45;
81998;PMS5003;71598;46.516;-122.928;2023-07-30T10:48:49;45;43;
81998;PMS5003;71598;46.516;-122.928;2023-07-30T10:51:14;49;48;
81998;PMS5003;71598;46.516;-122.928;2023-07-30T10:53:41;40;39;
81998;PMS5003;71598;46.516;-122.928;2023-07-30T10:56:05;41;39;
81998;PMS5003;71598;46.516;-122.928;2023-07-30T10:58:31;44;43;
81998;PMS5003;71598;46.516;-122.928;2023-07-30T11:00:56;45;42;
81998;PMS5003;71598;46.516;-122.928;2023-07-30T11:03:24;40;40;
81998;PMS5003;71598;46.516;-122.928;2023-07-30T11:05:48;46;46;
81998;PMS5003;71598;46.516;-122.928;2023-07-30T11:08:13;39;38;
81998;PMS5003;71598;46.516;-122.928;2023-07-30T11:10:43;34;34;
81998;PMS5003;71598;46.516;-122.928;2023-07-30T11:13:04;41;40;
81998;PMS5003;71598;46.516;-122.928;2023-07-30T11:15:29;38;37;
81998;PMS5003;71598;46.516;-122.928;2023-07-30T11:17:55;38;38;
81998;PMS5003;71598;46.516;-122.928;2023-07-30T11:20:24;38;36;
81998;PMS5003;71598;46.516;-122.928;2023-07-30T11:22:45;36;36;
81998;PMS5003;71598;46.516;-122.928;2023-07-30T11:25:16;42;40;
81998;PMS5003;71598;46.516;-122.928;2023-07-30T11:27:44;41;40;
81998;PMS5003;71598;46.516;-122.928;2023-07-30T11:30:02;41;40;
81998;PMS5003;71598;46.516;-122.928;2023-07-30T11:32:27;32;30;
81998;PMS5003;71598;46.516;-122.928;2023-07-30T11:34:52;37;37;
81998;PMS5003;71598;46.516;-122.928;2023-07-30T11:37:19;38;36;
81998;PMS5003;71598;46.516;-122.928;2023-07-30T11:39:43;34;34;
81998;PMS5003;71598;46.516;-122.928;2023-07-30T11:42:08;40;38;
81998;PMS5003;71598;46.516;-122.928;2023-07-30T11:44:34;38;37;
81998;PMS5003;71598;46.516;-122.928;2023-07-30T11:46:59;37;36;
81998;PMS5003;71598;46.516;-122.928;2023-07-30T11:49:24;38;37;
81998;PMS5003;71598;46.516;-122.928;2023-07-30T11:51:50;36;35;
81998;PMS5003;71598;46.516;-122.928;2023-07-30T11:54:19;35;35;
81998;PMS5003;71598;46.516;-122.928;2023-07-30T11:56:41;33;32;
81998;PMS5003;71598;46.516;-122.928;2023-07-30T11:59:07;32;32;
81998;PMS5003;71598;46.516;-122.928;2023-07-30T12:01:33;31;31;
81998;PMS5003;71598;46.516;-122.928;2023-07-30T12:03:58;35;35;
81998;PMS5003;71598;46.516;-122.928;2023-07-30T12:06:24;36;35;
81998;PMS5003;71598;46.516;-122.928;2023-07-30T12:08:49;30;30;
81998;PMS5003;71598;46.516;-122.928;2023-07-30T12:11:16;43;37;
81998;PMS5003;71598;46.516;-122.928;2023-07-30T12:13:43;33;32;
81998;PMS5003;71598;46.516;-122.928;2023-07-30T12:16:06;37;36;
81998;PMS5003;71598;46.516;-122.928;2023-07-30T12:18:31;32;32;
81998;PMS5003;71598;46.516;-122.928;2023-07-30T12:20:57;30;30;
81998;PMS5003;71598;46.516;-122.928;2023-07-30T12:23:22;32;32;
81998;PMS5003;71598;46.516;-122.928;2023-07-30T12:25:48;31;29;
81998;PMS5003;71598;46.516;-122.928;2023-07-30T12:28:13;28;28;
81998;PMS5003;71598;46.516;-122.928;2023-07-30T12:30:39;34;34;
81998;PMS5003;71598;46.516;-122.928;2023-07-30T12:33:04;33;32;
81998;PMS5003;71598;46.516;-122.928;2023-07-30T12:35:29;35;33;
81998;PMS5003;71598;46.516;-122.928;2023-07-30T12:37:54;29;29;
81998;PMS5003;71598;46.516;-122.928;2023-07-30T12:40:20;31;31;
81998;PMS5003;71598;46.516;-122.928;2023-07-30T12:42:45;34;32;
81998;PMS5003;71598;46.516;-122.928;2023-07-30T12:45:11;28;28;
81998;PMS5003;71598;46.516;-122.928;2023-07-30T12:47:37;30;30;
81998;PMS5003;71598;46.516;-122.928;2023-07-30T12:50:02;31;29;
81998;PMS5003;71598;46.516;-122.928;2023-07-30T12:52:28;25;25;
81998;PMS5003;71598;46.516;-122.928;2023-07-30T12:54:53;30;30;
81998;PMS5003;71598;46.516;-122.928;2023-07-30T12:57:19;27;27;
81998;PMS5003;71598;46.516;-122.928;2023-07-30T12:59:44;34;33;
81998;PMS5003;71598;46.516;-122.928;2023-07-30T13:02:11;29;28;
81998;PMS5003;71598;46.516;-122.928;2023-07-30T13:04:36;28;26;
81998;PMS5003;71598;46.516;-122.928;2023-07-30T13:07:02;27;27;
81998;PMS5003;71598;46.516;-122.928;2023-07-30T13:09:28;29;29;
81998;PMS5003;71598;46.516;-122.928;2023-07-30T13:11:53;25;25;
81998;PMS5003;71598;46.516;-122.928;2023-07-30T13:14:18;28;28;
81998;PMS5003;71598;46.516;-122.928;2023-07-30T13:16:43;25;25;
81998;PMS5003;71598;46.516;-122.928;2023-07-30T13:19:16;29;28;
81998;PMS5003;71598;46.516;-122.928;2023-07-30T13:21:40;25;25;
81998;PMS5003;71598;46.516;-122.928;2023-07-30T13:24:06;30;30;
81998;PMS5003;71598;46.516;-122.928;2023-07-30T13:26:31;28;28;
81998;PMS5003;71598;46.516;-122.928;2023-07-30T13:28:57;25;25;
81998;PMS5003;71598;46.516;-122.928;2023-07-30T13:31:22;28;28;
81998;PMS5003;71598;46.516;-122.928;2023-07-30T13:33:48;23;23;
81998;PMS5003;71598;46.516;-122.928;2023-07-30T13:36:13;27;25;
81998;PMS5003;71598;46.516;-122.928;2023-07-30T13:38:39;26;25;
81998;PMS5003;71598;46.516;-122.928;2023-07-30T13:41:06;25;25;
81998;PMS5003;71598;46.516;-122.928;2023-07-30T13:43:30;21;21;
81998;PMS5003;71598;46.516;-122.928;2023-07-30T13:45:55;27;27;
81998;PMS5003;71598;46.516;-122.928;2023-07-30T13:48:20;28;27;
81998;PMS5003;71598;46.516;-122.928;2023-07-30T13:50:46;25;25;
81998;PMS5003;71598;46.516;-122.928;2023-07-30T13:53:12;27;27;
81998;PMS5003;71598;46.516;-122.928;2023-07-30T13:55:37;24;24;
81998;PMS5003;71598;46.516;-122.928;2023-07-30T13:58:02;28;26;
81998;PMS5003;71598;46.516;-122.928;2023-07-30T14:00:28;24;24;
81998;PMS5003;71598;46.516;-122.928;2023-07-30T14:02:53;19;19;
81998;PMS5003;71598;46.516;-122.928;2023-07-30T14:05:18;28;27;
81998;PMS5003;71598;46.516;-122.928;2023-07-30T14:07:44;26;25;
81998;PMS5003;71598;46.516;-122.928;2023-07-30T14:10:09;22;22;
81998;PMS5003;71598;46.516;-122.928;2023-07-30T14:12:37;22;22;
81998;PMS5003;71598;46.516;-122.928;2023-07-30T14:15:00;23;22;
81998;PMS5003;71598;46.516;-122.928;2023-07-30T14:17:25;21;20;
81998;PMS5003;71598;46.516;-122.928;2023-07-30T14:19:50;18;18;
81998;PMS5003;71598;46.516;-122.928;2023-07-30T14:22:15;24;24;
81998;PMS5003;71598;46.516;-122.928;2023-07-30T14:24:41;22;22;
81998;PMS5003;71598;46.516;-122.928;2023-07-30T14:27:06;24;23;
81998;PMS5003;71598;46.516;-122.928;2023-07-30T14:29:31;23;21;
81998;PMS5003;71598;46.516;-122.928;2023-07-30T14:31:56;21;21;
81998;PMS5003;71598;46.516;-122.928;2023-07-30T14:34:22;23;23;
81998;PMS5003;71598;46.516;-122.928;2023-07-30T14:36:47;22;21;
81998;PMS5003;71598;46.516;-122.928;2023-07-30T14:39:13;24;24;
81998;PMS5003;71598;46.516;-122.928;2023-07-30T14:41:39;21;20;
81998;PMS5003;71598;46.516;-122.928;2023-07-30T14:44:04;23;23;
81998;PMS5003;71598;46.516;-122.928;2023-07-30T14:46:29;21;21;
81998;PMS5003;71598;46.516;-122.928;2023-07-30T14:48:54;19;18;
81998;PMS5003;71598;46.516;-122.928;2023-07-30T14:51:19;25;23;
81998;PMS5003;71598;46.516;-122.928;2023-07-30T14:53:44;21;20;
81998;PMS5003;71598;46.516;-122.928;2023-07-30T14:56:10;19;19;
81998;PMS5003;71598;46.516;-122.928;2023-07-30T14:58:35;16;16;
81998;PMS5003;71598;46.516;-122.928;2023-07-30T15:01:00;22;22;
81998;PMS5003;71598;46.516;-122.928;2023-07-30T15:03:26;15;15;
81998;PMS5003;71598;46.516;-122.928;2023-07-30T15:05:51;20;19;
81998;PMS5003;71598;46.516;-122.928;2023-07-30T15:08:16;20;20;
81998;PMS5003;71598;46.516;-122.928;2023-07-30T15:10:41;18;18;
81998;PMS5003;71598;46.516;-122.928;2023-07-30T15:13:07;16;15;
81998;PMS5003;71598;46.516;-122.928;2023-07-30T15:15:31;20;19;
81998;PMS5003;71598;46.516;-122.928;2023-07-30T15:17:56;17;17;
81998;PMS5003;71598;46.516;-122.928;2023-07-30T15:20:22;18;16;